sensor_id;sensor_type;location;lat;lon;timestamp;P1;durP1;ratioP1;P2;durP2;ratioP2
72437;SDS011;60444;43.534;-5.674;2022-09-01T00:02:13;18.83;;;12.02;;
72437;SDS011;60444;43.534;-5.674;2022-09-01T00:04:40;18.90;;;11.63;;
72437;SDS011;60444;43.534;-5.674;2022-09-01T00:07:08;19.02;;;11.80;;
72437;SDS011;60444;43.534;-5.674;2022-09-01T00:09:35;20.13;;;11.95;;
72437;SDS011;60444;43.534;-5.674;2022-09-01T00:12:02;20.83;;;13.03;;
72437;SDS011;60444;43.534;-5.674;2022-09-01T00:14:31;20.90;;;12.25;;
72437;SDS011;60444;43.534;-5.674;2022-09-01T00:16:59;21.63;;;11.77;;
72437;SDS011;60444;43.534;-5.674;2022-09-01T00:19:26;22.10;;;11.63;;
72437;SDS011;60444;43.534;-5.674;2022-09-01T00:21:53;22.98;;;11.70;;
72437;SDS011;60444;43.534;-5.674;2022-09-01T00:24:20;20.13;;;10.87;;
72437;SDS011;60444;43.534;-5.674;2022-09-01T00:26:50;17.92;;;10.73;;
72437;SDS011;60444;43.534;-5.674;2022-09-01T00:29:16;19.80;;;10.15;;
72437;SDS011;60444;43.534;-5.674;2022-09-01T00:31:42;15.83;;;9.30;;
72437;SDS011;60444;43.534;-5.674;2022-09-01T00:34:07;17.35;;;10.23;;
72437;SDS011;60444;43.534;-5.674;2022-09-01T00:36:33;18.70;;;10.15;;
72437;SDS011;60444;43.534;-5.674;2022-09-01T00:38:59;16.50;;;10.07;;
72437;SDS011;60444;43.534;-5.674;2022-09-01T00:41:26;17.80;;;10.57;;
72437;SDS011;60444;43.534;-5.674;2022-09-01T00:44:05;18.38;;;9.98;;
72437;SDS011;60444;43.534;-5.674;2022-09-01T00:46:43;19.45;;;10.48;;
72437;SDS011;60444;43.534;-5.674;2022-09-01T00:49:13;17.87;;;9.43;;
72437;SDS011;60444;43.534;-5.674;2022-09-01T00:51:44;15.18;;;8.73;;
72437;SDS011;60444;43.534;-5.674;2022-09-01T00:54:15;16.52;;;9.38;;
72437;SDS011;60444;43.534;-5.674;2022-09-01T00:56:46;17.58;;;9.77;;
72437;SDS011;60444;43.534;-5.674;2022-09-01T00:59:13;16.63;;;8.70;;
72437;SDS011;60444;43.534;-5.674;2022-09-01T01:01:41;16.23;;;9.17;;
72437;SDS011;60444;43.534;-5.674;2022-09-01T01:04:07;14.80;;;8.77;;
72437;SDS011;60444;43.534;-5.674;2022-09-01T01:09:16;14.93;;;8.90;;
72437;SDS011;60444;43.534;-5.674;2022-09-01T01:11:44;17.47;;;9.50;;
72437;SDS011;60444;43.534;-5.674;2022-09-01T01:14:12;14.63;;;8.77;;
72437;SDS011;60444;43.534;-5.674;2022-09-01T01:16:40;13.98;;;8.52;;
72437;SDS011;60444;43.534;-5.674;2022-09-01T01:22:05;13.90;;;8.00;;
72437;SDS011;60444;43.534;-5.674;2022-09-01T01:24:53;15.40;;;9.10;;
72437;SDS011;60444;43.534;-5.674;2022-09-01T01:27:20;14.55;;;8.65;;
72437;SDS011;60444;43.534;-5.674;2022-09-01T01:29:46;15.20;;;8.52;;
72437;SDS011;60444;43.534;-5.674;2022-09-01T01:32:12;12.45;;;6.78;;
72437;SDS011;60444;43.534;-5.674;2022-09-01T01:34:38;13.33;;;7.37;;
72437;SDS011;60444;43.534;-5.674;2022-09-01T01:37:06;15.45;;;7.93;;
72437;SDS011;60444;43.534;-5.674;2022-09-01T01:39:34;14.85;;;7.95;;
72437;SDS011;60444;43.534;-5.674;2022-09-01T01:42:00;14.73;;;8.45;;
72437;SDS011;60444;43.534;-5.674;2022-09-01T01:44:26;14.13;;;7.90;;
72437;SDS011;60444;43.534;-5.674;2022-09-01T01:46:52;14.38;;;8.32;;
72437;SDS011;60444;43.534;-5.674;2022-09-01T01:49:21;14.43;;;8.13;;
72437;SDS011;60444;43.534;-5.674;2022-09-01T01:51:49;15.03;;;8.30;;
72437;SDS011;60444;43.534;-5.674;2022-09-01T01:54:22;15.95;;;8.88;;
72437;SDS011;60444;43.534;-5.674;2022-09-01T01:56:49;19.25;;;8.65;;
72437;SDS011;60444;43.534;-5.674;2022-09-01T01:59:15;15.10;;;9.03;;
72437;SDS011;60444;43.534;-5.674;2022-09-01T02:01:42;14.27;;;8.63;;
72437;SDS011;60444;43.534;-5.674;2022-09-01T02:04:13;16.60;;;9.10;;
72437;SDS011;60444;43.534;-5.674;2022-09-01T02:06:41;13.95;;;8.23;;
72437;SDS011;60444;43.534;-5.674;2022-09-01T02:09:09;13.20;;;7.80;;
72437;SDS011;60444;43.534;-5.674;2022-09-01T02:11:36;16.33;;;8.63;;
72437;SDS011;60444;43.534;-5.674;2022-09-01T02:14:04;14.05;;;7.57;;
72437;SDS011;60444;43.534;-5.674;2022-09-01T02:16:32;15.77;;;8.13;;
72437;SDS011;60444;43.534;-5.674;2022-09-01T02:19:00;13.85;;;7.82;;
72437;SDS011;60444;43.534;-5.674;2022-09-01T02:21:27;13.33;;;7.90;;
72437;SDS011;60444;43.534;-5.674;2022-09-01T02:23:54;12.15;;;7.03;;
72437;SDS011;60444;43.534;-5.674;2022-09-01T02:26:27;12.70;;;7.45;;
72437;SDS011;60444;43.534;-5.674;2022-09-01T02:28:56;12.60;;;6.80;;
72437;SDS011;60444;43.534;-5.674;2022-09-01T02:31:29;13.00;;;7.57;;
72437;SDS011;60444;43.534;-5.674;2022-09-01T02:34:06;11.70;;;6.47;;
72437;SDS011;60444;43.534;-5.674;2022-09-01T02:36:35;11.07;;;6.38;;
72437;SDS011;60444;43.534;-5.674;2022-09-01T02:39:12;11.45;;;6.63;;
72437;SDS011;60444;43.534;-5.674;2022-09-01T02:41:42;12.00;;;6.78;;
72437;SDS011;60444;43.534;-5.674;2022-09-01T02:44:07;14.35;;;7.57;;
72437;SDS011;60444;43.534;-5.674;2022-09-01T02:46:42;13.57;;;7.53;;
72437;SDS011;60444;43.534;-5.674;2022-09-01T02:49:10;11.15;;;6.35;;
72437;SDS011;60444;43.534;-5.674;2022-09-01T02:51:42;10.80;;;7.05;;
72437;SDS011;60444;43.534;-5.674;2022-09-01T02:54:09;12.63;;;6.45;;
72437;SDS011;60444;43.534;-5.674;2022-09-01T02:56:39;13.48;;;7.65;;
72437;SDS011;60444;43.534;-5.674;2022-09-01T02:59:05;14.37;;;8.70;;
72437;SDS011;60444;43.534;-5.674;2022-09-01T03:01:37;14.80;;;8.20;;
72437;SDS011;60444;43.534;-5.674;2022-09-01T03:04:04;14.00;;;8.02;;
72437;SDS011;60444;43.534;-5.674;2022-09-01T03:06:33;16.17;;;9.80;;
72437;SDS011;60444;43.534;-5.674;2022-09-01T03:09:00;11.55;;;6.43;;
72437;SDS011;60444;43.534;-5.674;2022-09-01T03:11:28;12.60;;;7.80;;
72437;SDS011;60444;43.534;-5.674;2022-09-01T03:13:56;15.50;;;8.82;;
72437;SDS011;60444;43.534;-5.674;2022-09-01T03:16:22;14.02;;;8.73;;
72437;SDS011;60444;43.534;-5.674;2022-09-01T03:18:48;11.60;;;6.63;;
72437;SDS011;60444;43.534;-5.674;2022-09-01T03:21:14;12.65;;;8.25;;
72437;SDS011;60444;43.534;-5.674;2022-09-01T03:23:41;15.70;;;8.13;;
72437;SDS011;60444;43.534;-5.674;2022-09-01T03:26:09;12.82;;;7.10;;
72437;SDS011;60444;43.534;-5.674;2022-09-01T03:28:35;14.63;;;7.63;;
72437;SDS011;60444;43.534;-5.674;2022-09-01T03:31:02;13.35;;;7.53;;
72437;SDS011;60444;43.534;-5.674;2022-09-01T03:33:29;13.52;;;8.48;;
72437;SDS011;60444;43.534;-5.674;2022-09-01T03:35:56;14.73;;;7.70;;
72437;SDS011;60444;43.534;-5.674;2022-09-01T03:38:22;15.20;;;8.03;;
72437;SDS011;60444;43.534;-5.674;2022-09-01T03:40:49;13.23;;;7.85;;
72437;SDS011;60444;43.534;-5.674;2022-09-01T03:43:17;14.20;;;7.93;;
72437;SDS011;60444;43.534;-5.674;2022-09-01T03:45:47;15.13;;;9.10;;
72437;SDS011;60444;43.534;-5.674;2022-09-01T03:48:13;15.38;;;8.93;;
72437;SDS011;60444;43.534;-5.674;2022-09-01T03:50:40;13.57;;;8.18;;
72437;SDS011;60444;43.534;-5.674;2022-09-01T03:53:13;15.88;;;8.18;;
72437;SDS011;60444;43.534;-5.674;2022-09-01T03:55:45;13.98;;;7.97;;
72437;SDS011;60444;43.534;-5.674;2022-09-01T03:58:17;16.13;;;9.03;;
72437;SDS011;60444;43.534;-5.674;2022-09-01T04:00:44;13.98;;;8.30;;
72437;SDS011;60444;43.534;-5.674;2022-09-01T04:03:12;14.50;;;8.60;;
72437;SDS011;60444;43.534;-5.674;2022-09-01T04:05:40;15.07;;;8.68;;
72437;SDS011;60444;43.534;-5.674;2022-09-01T04:08:09;13.93;;;8.95;;
72437;SDS011;60444;43.534;-5.674;2022-09-01T04:10:43;13.47;;;8.90;;
72437;SDS011;60444;43.534;-5.674;2022-09-01T04:13:24;14.20;;;8.85;;
72437;SDS011;60444;43.534;-5.674;2022-09-01T04:15:50;15.27;;;8.63;;
72437;SDS011;60444;43.534;-5.674;2022-09-01T04:18:16;15.95;;;9.02;;
72437;SDS011;60444;43.534;-5.674;2022-09-01T04:20:47;19.33;;;11.40;;
72437;SDS011;60444;43.534;-5.674;2022-09-01T04:23:31;16.23;;;9.20;;
72437;SDS011;60444;43.534;-5.674;2022-09-01T04:26:00;16.55;;;9.43;;
72437;SDS011;60444;43.534;-5.674;2022-09-01T04:28:39;18.10;;;10.30;;
72437;SDS011;60444;43.534;-5.674;2022-09-01T04:31:11;17.13;;;8.93;;
72437;SDS011;60444;43.534;-5.674;2022-09-01T04:33:41;18.63;;;10.55;;
72437;SDS011;60444;43.534;-5.674;2022-09-01T04:38:51;22.20;;;12.45;;
72437;SDS011;60444;43.534;-5.674;2022-09-01T04:41:19;22.23;;;11.75;;
72437;SDS011;60444;43.534;-5.674;2022-09-01T04:43:46;19.40;;;11.65;;
72437;SDS011;60444;43.534;-5.674;2022-09-01T04:46:13;18.17;;;10.57;;
72437;SDS011;60444;43.534;-5.674;2022-09-01T04:48:40;19.70;;;10.97;;
72437;SDS011;60444;43.534;-5.674;2022-09-01T04:51:09;17.23;;;10.15;;
72437;SDS011;60444;43.534;-5.674;2022-09-01T04:53:36;18.23;;;10.95;;
72437;SDS011;60444;43.534;-5.674;2022-09-01T04:56:06;20.30;;;11.60;;
72437;SDS011;60444;43.534;-5.674;2022-09-01T04:58:34;21.10;;;11.93;;
72437;SDS011;60444;43.534;-5.674;2022-09-01T05:01:01;20.67;;;10.97;;
72437;SDS011;60444;43.534;-5.674;2022-09-01T05:03:37;21.95;;;11.18;;
72437;SDS011;60444;43.534;-5.674;2022-09-01T05:06:03;23.60;;;13.05;;
72437;SDS011;60444;43.534;-5.674;2022-09-01T05:08:28;18.70;;;10.87;;
72437;SDS011;60444;43.534;-5.674;2022-09-01T05:10:56;21.05;;;10.93;;
72437;SDS011;60444;43.534;-5.674;2022-09-01T05:13:21;19.70;;;10.97;;
72437;SDS011;60444;43.534;-5.674;2022-09-01T05:15:57;22.88;;;12.07;;
72437;SDS011;60444;43.534;-5.674;2022-09-01T05:18:26;21.90;;;10.88;;
72437;SDS011;60444;43.534;-5.674;2022-09-01T05:20:52;19.13;;;10.88;;
72437;SDS011;60444;43.534;-5.674;2022-09-01T05:23:19;18.45;;;10.02;;
72437;SDS011;60444;43.534;-5.674;2022-09-01T05:25:47;18.27;;;10.07;;
72437;SDS011;60444;43.534;-5.674;2022-09-01T05:28:14;20.42;;;10.10;;
72437;SDS011;60444;43.534;-5.674;2022-09-01T05:30:42;21.17;;;11.65;;
72437;SDS011;60444;43.534;-5.674;2022-09-01T05:33:10;21.30;;;11.18;;
72437;SDS011;60444;43.534;-5.674;2022-09-01T05:35:41;21.77;;;10.95;;
72437;SDS011;60444;43.534;-5.674;2022-09-01T05:38:17;22.33;;;10.50;;
72437;SDS011;60444;43.534;-5.674;2022-09-01T05:40:43;16.98;;;9.52;;
72437;SDS011;60444;43.534;-5.674;2022-09-01T05:43:09;19.02;;;9.82;;
72437;SDS011;60444;43.534;-5.674;2022-09-01T05:45:40;18.70;;;9.30;;
72437;SDS011;60444;43.534;-5.674;2022-09-01T05:48:12;21.13;;;9.55;;
72437;SDS011;60444;43.534;-5.674;2022-09-01T05:50:44;16.92;;;10.48;;
72437;SDS011;60444;43.534;-5.674;2022-09-01T05:53:11;18.65;;;9.60;;
72437;SDS011;60444;43.534;-5.674;2022-09-01T05:55:44;17.23;;;9.23;;
72437;SDS011;60444;43.534;-5.674;2022-09-01T05:58:14;15.60;;;8.03;;
72437;SDS011;60444;43.534;-5.674;2022-09-01T06:00:44;17.15;;;9.30;;
72437;SDS011;60444;43.534;-5.674;2022-09-01T06:03:14;17.20;;;9.02;;
72437;SDS011;60444;43.534;-5.674;2022-09-01T06:05:42;16.95;;;9.35;;
72437;SDS011;60444;43.534;-5.674;2022-09-01T06:08:12;15.60;;;8.48;;
72437;SDS011;60444;43.534;-5.674;2022-09-01T06:10:40;18.13;;;8.77;;
72437;SDS011;60444;43.534;-5.674;2022-09-01T06:13:09;15.98;;;7.55;;
72437;SDS011;60444;43.534;-5.674;2022-09-01T06:15:36;14.98;;;8.02;;
72437;SDS011;60444;43.534;-5.674;2022-09-01T06:18:06;13.77;;;7.63;;
72437;SDS011;60444;43.534;-5.674;2022-09-01T06:20:33;16.23;;;7.72;;
72437;SDS011;60444;43.534;-5.674;2022-09-01T06:23:03;12.73;;;7.00;;
72437;SDS011;60444;43.534;-5.674;2022-09-01T06:25:28;14.02;;;7.13;;
72437;SDS011;60444;43.534;-5.674;2022-09-01T06:27:55;12.23;;;6.60;;
72437;SDS011;60444;43.534;-5.674;2022-09-01T06:30:21;12.30;;;6.57;;
72437;SDS011;60444;43.534;-5.674;2022-09-01T06:32:49;11.90;;;6.65;;
72437;SDS011;60444;43.534;-5.674;2022-09-01T06:35:15;12.63;;;6.03;;
72437;SDS011;60444;43.534;-5.674;2022-09-01T06:37:42;13.15;;;6.30;;
72437;SDS011;60444;43.534;-5.674;2022-09-01T06:40:09;11.93;;;6.13;;
72437;SDS011;60444;43.534;-5.674;2022-09-01T06:42:50;12.60;;;5.95;;
72437;SDS011;60444;43.534;-5.674;2022-09-01T06:45:21;11.05;;;5.80;;
72437;SDS011;60444;43.534;-5.674;2022-09-01T06:47:48;12.20;;;6.50;;
72437;SDS011;60444;43.534;-5.674;2022-09-01T06:50:18;11.10;;;5.95;;
72437;SDS011;60444;43.534;-5.674;2022-09-01T06:52:46;11.03;;;5.17;;
72437;SDS011;60444;43.534;-5.674;2022-09-01T06:55:14;10.38;;;5.47;;
72437;SDS011;60444;43.534;-5.674;2022-09-01T06:57:41;10.85;;;5.57;;
72437;SDS011;60444;43.534;-5.674;2022-09-01T07:00:19;11.73;;;4.47;;
72437;SDS011;60444;43.534;-5.674;2022-09-01T07:02:45;9.18;;;4.82;;
72437;SDS011;60444;43.534;-5.674;2022-09-01T07:05:13;15.63;;;5.60;;
72437;SDS011;60444;43.534;-5.674;2022-09-01T07:07:50;9.85;;;5.03;;
72437;SDS011;60444;43.534;-5.674;2022-09-01T07:10:20;11.30;;;4.50;;
72437;SDS011;60444;43.534;-5.674;2022-09-01T07:12:53;10.13;;;4.85;;
72437;SDS011;60444;43.534;-5.674;2022-09-01T07:15:23;8.95;;;4.38;;
72437;SDS011;60444;43.534;-5.674;2022-09-01T07:17:51;8.23;;;3.80;;
72437;SDS011;60444;43.534;-5.674;2022-09-01T07:20:19;8.98;;;4.97;;
72437;SDS011;60444;43.534;-5.674;2022-09-01T07:22:47;10.20;;;4.90;;
72437;SDS011;60444;43.534;-5.674;2022-09-01T07:25:13;8.48;;;4.60;;
72437;SDS011;60444;43.534;-5.674;2022-09-01T07:27:39;8.63;;;4.00;;
72437;SDS011;60444;43.534;-5.674;2022-09-01T07:30:13;8.60;;;3.80;;
72437;SDS011;60444;43.534;-5.674;2022-09-01T07:32:39;8.07;;;3.95;;
72437;SDS011;60444;43.534;-5.674;2022-09-01T07:35:07;8.95;;;4.25;;
72437;SDS011;60444;43.534;-5.674;2022-09-01T07:37:34;8.25;;;3.78;;
72437;SDS011;60444;43.534;-5.674;2022-09-01T07:40:03;9.07;;;4.22;;
72437;SDS011;60444;43.534;-5.674;2022-09-01T07:42:46;8.53;;;4.03;;
72437;SDS011;60444;43.534;-5.674;2022-09-01T07:45:13;7.90;;;3.33;;
72437;SDS011;60444;43.534;-5.674;2022-09-01T07:47:41;12.18;;;5.93;;
72437;SDS011;60444;43.534;-5.674;2022-09-01T07:50:09;8.40;;;3.70;;
72437;SDS011;60444;43.534;-5.674;2022-09-01T07:52:39;11.45;;;4.80;;
72437;SDS011;60444;43.534;-5.674;2022-09-01T07:55:13;11.13;;;4.67;;
72437;SDS011;60444;43.534;-5.674;2022-09-01T07:57:43;9.50;;;3.80;;
72437;SDS011;60444;43.534;-5.674;2022-09-01T08:00:12;14.10;;;5.50;;
72437;SDS011;60444;43.534;-5.674;2022-09-01T08:02:42;8.25;;;3.90;;
72437;SDS011;60444;43.534;-5.674;2022-09-01T08:05:09;8.45;;;3.58;;
72437;SDS011;60444;43.534;-5.674;2022-09-01T08:07:37;7.70;;;3.50;;
72437;SDS011;60444;43.534;-5.674;2022-09-01T08:10:04;8.50;;;3.10;;
72437;SDS011;60444;43.534;-5.674;2022-09-01T08:12:32;7.30;;;3.67;;
72437;SDS011;60444;43.534;-5.674;2022-09-01T08:15:00;8.77;;;3.70;;
72437;SDS011;60444;43.534;-5.674;2022-09-01T08:17:26;8.65;;;3.83;;
72437;SDS011;60444;43.534;-5.674;2022-09-01T08:19:52;7.30;;;3.33;;
72437;SDS011;60444;43.534;-5.674;2022-09-01T08:22:17;8.93;;;4.07;;
72437;SDS011;60444;43.534;-5.674;2022-09-01T08:24:48;7.65;;;3.45;;
72437;SDS011;60444;43.534;-5.674;2022-09-01T08:27:14;8.70;;;3.50;;
72437;SDS011;60444;43.534;-5.674;2022-09-01T08:29:40;7.40;;;2.97;;
72437;SDS011;60444;43.534;-5.674;2022-09-01T08:32:05;7.07;;;3.20;;
72437;SDS011;60444;43.534;-5.674;2022-09-01T08:34:32;6.67;;;2.60;;
72437;SDS011;60444;43.534;-5.674;2022-09-01T08:36:58;8.13;;;3.50;;
72437;SDS011;60444;43.534;-5.674;2022-09-01T08:39:24;8.82;;;3.88;;
72437;SDS011;60444;43.534;-5.674;2022-09-01T08:41:58;7.35;;;3.95;;
72437;SDS011;60444;43.534;-5.674;2022-09-01T08:47:21;8.68;;;3.00;;
72437;SDS011;60444;43.534;-5.674;2022-09-01T08:49:46;6.82;;;2.72;;
72437;SDS011;60444;43.534;-5.674;2022-09-01T08:52:18;7.40;;;3.13;;
72437;SDS011;60444;43.534;-5.674;2022-09-01T08:55:13;8.63;;;2.90;;
72437;SDS011;60444;43.534;-5.674;2022-09-01T08:57:41;6.22;;;2.80;;
72437;SDS011;60444;43.534;-5.674;2022-09-01T09:00:10;6.85;;;2.97;;
72437;SDS011;60444;43.534;-5.674;2022-09-01T09:02:50;6.70;;;2.88;;
72437;SDS011;60444;43.534;-5.674;2022-09-01T09:14:10;6.15;;;2.70;;
72437;SDS011;60444;43.534;-5.674;2022-09-01T09:16:51;6.15;;;2.55;;
72437;SDS011;60444;43.534;-5.674;2022-09-01T09:19:29;6.37;;;2.50;;
72437;SDS011;60444;43.534;-5.674;2022-09-01T09:21:59;8.00;;;3.10;;
72437;SDS011;60444;43.534;-5.674;2022-09-01T09:25:09;6.60;;;2.90;;
72437;SDS011;60444;43.534;-5.674;2022-09-01T09:27:41;5.95;;;2.10;;
72437;SDS011;60444;43.534;-5.674;2022-09-01T09:32:53;7.93;;;3.00;;
72437;SDS011;60444;43.534;-5.674;2022-09-01T09:37:47;7.57;;;3.13;;
72437;SDS011;60444;43.534;-5.674;2022-09-01T09:40:14;7.63;;;2.30;;
72437;SDS011;60444;43.534;-5.674;2022-09-01T09:47:49;6.35;;;2.35;;
72437;SDS011;60444;43.534;-5.674;2022-09-01T09:52:51;8.77;;;4.20;;
72437;SDS011;60444;43.534;-5.674;2022-09-01T09:55:34;7.13;;;3.60;;
72437;SDS011;60444;43.534;-5.674;2022-09-01T09:58:00;10.37;;;5.00;;
72437;SDS011;60444;43.534;-5.674;2022-09-01T10:00:36;11.38;;;5.47;;
72437;SDS011;60444;43.534;-5.674;2022-09-01T10:03:06;15.82;;;10.27;;
72437;SDS011;60444;43.534;-5.674;2022-09-01T10:08:01;17.90;;;10.25;;
72437;SDS011;60444;43.534;-5.674;2022-09-01T10:13:04;10.20;;;5.57;;
72437;SDS011;60444;43.534;-5.674;2022-09-01T10:15:34;9.90;;;5.67;;
72437;SDS011;60444;43.534;-5.674;2022-09-01T10:18:03;8.52;;;5.25;;
72437;SDS011;60444;43.534;-5.674;2022-09-01T10:20:33;11.88;;;7.05;;
72437;SDS011;60444;43.534;-5.674;2022-09-01T10:23:01;12.95;;;7.32;;
72437;SDS011;60444;43.534;-5.674;2022-09-01T10:25:28;12.32;;;7.68;;
72437;SDS011;60444;43.534;-5.674;2022-09-01T10:28:01;20.10;;;12.07;;
72437;SDS011;60444;43.534;-5.674;2022-09-01T10:30:35;23.15;;;12.68;;
72437;SDS011;60444;43.534;-5.674;2022-09-01T10:33:06;22.80;;;12.32;;
72437;SDS011;60444;43.534;-5.674;2022-09-01T10:35:33;17.90;;;11.13;;
72437;SDS011;60444;43.534;-5.674;2022-09-01T10:38:04;18.15;;;10.40;;
72437;SDS011;60444;43.534;-5.674;2022-09-01T10:48:46;14.18;;;8.50;;
72437;SDS011;60444;43.534;-5.674;2022-09-01T10:53:49;12.00;;;5.93;;
72437;SDS011;60444;43.534;-5.674;2022-09-01T11:04:12;10.00;;;4.63;;
72437;SDS011;60444;43.534;-5.674;2022-09-01T11:12:19;8.32;;;3.90;;
72437;SDS011;60444;43.534;-5.674;2022-09-01T11:20:30;12.83;;;5.70;;
72437;SDS011;60444;43.534;-5.674;2022-09-01T11:23:19;10.23;;;5.22;;
72437;SDS011;60444;43.534;-5.674;2022-09-01T11:30:43;12.37;;;6.53;;
72437;SDS011;60444;43.534;-5.674;2022-09-01T11:36:00;12.82;;;6.15;;
72437;SDS011;60444;43.534;-5.674;2022-09-01T11:38:40;10.87;;;6.20;;
72437;SDS011;60444;43.534;-5.674;2022-09-01T11:41:18;14.75;;;6.50;;
72437;SDS011;60444;43.534;-5.674;2022-09-01T11:43:48;14.00;;;5.90;;
72437;SDS011;60444;43.534;-5.674;2022-09-01T11:46:30;11.55;;;6.85;;
72437;SDS011;60444;43.534;-5.674;2022-09-01T11:48:59;12.23;;;6.15;;
72437;SDS011;60444;43.534;-5.674;2022-09-01T11:51:36;11.07;;;5.67;;
72437;SDS011;60444;43.534;-5.674;2022-09-01T11:54:06;12.35;;;6.03;;
72437;SDS011;60444;43.534;-5.674;2022-09-01T11:56:32;11.57;;;6.35;;
72437;SDS011;60444;43.534;-5.674;2022-09-01T11:58:58;11.53;;;6.30;;
72437;SDS011;60444;43.534;-5.674;2022-09-01T12:03:57;12.57;;;6.18;;
72437;SDS011;60444;43.534;-5.674;2022-09-01T12:06:41;11.40;;;5.60;;
72437;SDS011;60444;43.534;-5.674;2022-09-01T12:09:17;10.32;;;5.45;;
72437;SDS011;60444;43.534;-5.674;2022-09-01T12:11:43;11.50;;;5.47;;
72437;SDS011;60444;43.534;-5.674;2022-09-01T12:14:10;12.83;;;6.30;;
72437;SDS011;60444;43.534;-5.674;2022-09-01T12:16:57;11.38;;;5.80;;
72437;SDS011;60444;43.534;-5.674;2022-09-01T12:19:26;11.05;;;5.68;;
72437;SDS011;60444;43.534;-5.674;2022-09-01T12:22:06;11.87;;;5.67;;
72437;SDS011;60444;43.534;-5.674;2022-09-01T12:24:43;12.18;;;5.85;;
72437;SDS011;60444;43.534;-5.674;2022-09-01T12:27:10;11.18;;;5.60;;
72437;SDS011;60444;43.534;-5.674;2022-09-01T12:29:37;9.50;;;4.70;;
72437;SDS011;60444;43.534;-5.674;2022-09-01T12:32:04;11.02;;;5.60;;
72437;SDS011;60444;43.534;-5.674;2022-09-01T12:39:34;9.43;;;5.13;;
72437;SDS011;60444;43.534;-5.674;2022-09-01T12:42:08;12.40;;;5.07;;
72437;SDS011;60444;43.534;-5.674;2022-09-01T12:44:44;10.40;;;5.63;;
72437;SDS011;60444;43.534;-5.674;2022-09-01T12:47:42;10.55;;;4.88;;
72437;SDS011;60444;43.534;-5.674;2022-09-01T12:52:46;10.53;;;4.83;;
72437;SDS011;60444;43.534;-5.674;2022-09-01T12:55:16;12.10;;;4.90;;
72437;SDS011;60444;43.534;-5.674;2022-09-01T12:57:54;10.63;;;4.75;;
72437;SDS011;60444;43.534;-5.674;2022-09-01T13:00:23;10.50;;;4.82;;
72437;SDS011;60444;43.534;-5.674;2022-09-01T13:03:02;12.07;;;4.80;;
72437;SDS011;60444;43.534;-5.674;2022-09-01T13:05:55;11.25;;;4.15;;
72437;SDS011;60444;43.534;-5.674;2022-09-01T13:08:26;10.18;;;4.78;;
72437;SDS011;60444;43.534;-5.674;2022-09-01T13:11:19;9.70;;;4.63;;
72437;SDS011;60444;43.534;-5.674;2022-09-01T13:13:42;11.43;;;4.85;;
72437;SDS011;60444;43.534;-5.674;2022-09-01T13:16:07;8.77;;;4.57;;
72437;SDS011;60444;43.534;-5.674;2022-09-01T13:18:36;9.25;;;4.50;;
72437;SDS011;60444;43.534;-5.674;2022-09-01T13:21:03;11.18;;;4.53;;
72437;SDS011;60444;43.534;-5.674;2022-09-01T13:23:29;10.30;;;4.63;;
72437;SDS011;60444;43.534;-5.674;2022-09-01T13:25:55;8.77;;;4.32;;
72437;SDS011;60444;43.534;-5.674;2022-09-01T13:28:23;9.57;;;4.88;;
72437;SDS011;60444;43.534;-5.674;2022-09-01T13:30:51;10.70;;;4.77;;
72437;SDS011;60444;43.534;-5.674;2022-09-01T13:33:20;9.02;;;4.28;;
72437;SDS011;60444;43.534;-5.674;2022-09-01T13:35:47;8.43;;;4.10;;
72437;SDS011;60444;43.534;-5.674;2022-09-01T13:38:13;10.80;;;4.60;;
72437;SDS011;60444;43.534;-5.674;2022-09-01T13:40:41;10.93;;;4.65;;
72437;SDS011;60444;43.534;-5.674;2022-09-01T13:43:07;9.67;;;4.40;;
72437;SDS011;60444;43.534;-5.674;2022-09-01T13:45:33;12.18;;;4.72;;
72437;SDS011;60444;43.534;-5.674;2022-09-01T13:47:59;10.60;;;4.97;;
72437;SDS011;60444;43.534;-5.674;2022-09-01T13:50:25;12.70;;;5.00;;
72437;SDS011;60444;43.534;-5.674;2022-09-01T13:52:52;10.93;;;5.57;;
72437;SDS011;60444;43.534;-5.674;2022-09-01T13:55:26;10.60;;;5.55;;
72437;SDS011;60444;43.534;-5.674;2022-09-01T13:57:54;11.93;;;5.00;;
72437;SDS011;60444;43.534;-5.674;2022-09-01T14:00:22;10.75;;;4.75;;
72437;SDS011;60444;43.534;-5.674;2022-09-01T14:02:51;14.03;;;5.20;;
72437;SDS011;60444;43.534;-5.674;2022-09-01T14:05:21;9.88;;;4.80;;
72437;SDS011;60444;43.534;-5.674;2022-09-01T14:07:52;9.13;;;5.15;;
72437;SDS011;60444;43.534;-5.674;2022-09-01T14:10:19;9.27;;;4.88;;
72437;SDS011;60444;43.534;-5.674;2022-09-01T14:12:46;11.20;;;5.75;;
72437;SDS011;60444;43.534;-5.674;2022-09-01T14:15:12;11.20;;;5.50;;
72437;SDS011;60444;43.534;-5.674;2022-09-01T14:17:40;10.13;;;5.53;;
72437;SDS011;60444;43.534;-5.674;2022-09-01T14:20:07;10.98;;;5.50;;
72437;SDS011;60444;43.534;-5.674;2022-09-01T14:22:37;12.70;;;5.95;;
72437;SDS011;60444;43.534;-5.674;2022-09-01T14:25:07;12.40;;;5.77;;
72437;SDS011;60444;43.534;-5.674;2022-09-01T14:27:34;11.68;;;5.88;;
72437;SDS011;60444;43.534;-5.674;2022-09-01T14:30:00;11.73;;;6.13;;
72437;SDS011;60444;43.534;-5.674;2022-09-01T14:32:27;11.23;;;6.25;;
72437;SDS011;60444;43.534;-5.674;2022-09-01T14:34:53;12.52;;;5.82;;
72437;SDS011;60444;43.534;-5.674;2022-09-01T14:37:20;8.70;;;5.10;;
72437;SDS011;60444;43.534;-5.674;2022-09-01T14:39:52;9.77;;;4.95;;
72437;SDS011;60444;43.534;-5.674;2022-09-01T14:42:19;9.23;;;4.97;;
72437;SDS011;60444;43.534;-5.674;2022-09-01T14:44:46;9.77;;;5.32;;
72437;SDS011;60444;43.534;-5.674;2022-09-01T14:47:12;10.00;;;5.85;;
72437;SDS011;60444;43.534;-5.674;2022-09-01T14:49:38;10.70;;;6.10;;
72437;SDS011;60444;43.534;-5.674;2022-09-01T14:52:05;11.50;;;5.38;;
72437;SDS011;60444;43.534;-5.674;2022-09-01T14:54:36;9.82;;;5.68;;
72437;SDS011;60444;43.534;-5.674;2022-09-01T14:57:04;10.75;;;5.57;;
72437;SDS011;60444;43.534;-5.674;2022-09-01T14:59:30;11.07;;;5.68;;
72437;SDS011;60444;43.534;-5.674;2022-09-01T15:01:56;10.30;;;5.57;;
72437;SDS011;60444;43.534;-5.674;2022-09-01T15:04:22;10.77;;;5.53;;
72437;SDS011;60444;43.534;-5.674;2022-09-01T15:06:48;9.83;;;5.20;;
72437;SDS011;60444;43.534;-5.674;2022-09-01T15:09:13;9.95;;;4.78;;
72437;SDS011;60444;43.534;-5.674;2022-09-01T15:11:39;13.77;;;6.00;;
72437;SDS011;60444;43.534;-5.674;2022-09-01T15:14:06;9.07;;;4.80;;
72437;SDS011;60444;43.534;-5.674;2022-09-01T15:16:34;9.07;;;5.30;;
72437;SDS011;60444;43.534;-5.674;2022-09-01T15:19:07;9.67;;;4.30;;
72437;SDS011;60444;43.534;-5.674;2022-09-01T15:21:35;9.23;;;5.13;;
72437;SDS011;60444;43.534;-5.674;2022-09-01T15:24:02;8.85;;;5.43;;
72437;SDS011;60444;43.534;-5.674;2022-09-01T15:26:29;9.20;;;4.85;;
72437;SDS011;60444;43.534;-5.674;2022-09-01T15:28:55;8.13;;;4.90;;
72437;SDS011;60444;43.534;-5.674;2022-09-01T15:31:23;8.93;;;4.90;;
72437;SDS011;60444;43.534;-5.674;2022-09-01T15:33:53;8.57;;;5.00;;
72437;SDS011;60444;43.534;-5.674;2022-09-01T15:36:21;8.73;;;4.53;;
72437;SDS011;60444;43.534;-5.674;2022-09-01T15:38:48;8.20;;;4.43;;
72437;SDS011;60444;43.534;-5.674;2022-09-01T15:41:24;10.40;;;5.47;;
72437;SDS011;60444;43.534;-5.674;2022-09-01T15:43:52;9.43;;;5.00;;
72437;SDS011;60444;43.534;-5.674;2022-09-01T15:46:18;8.40;;;5.13;;
72437;SDS011;60444;43.534;-5.674;2022-09-01T15:48:45;11.18;;;5.60;;
72437;SDS011;60444;43.534;-5.674;2022-09-01T15:53:49;9.15;;;5.55;;
72437;SDS011;60444;43.534;-5.674;2022-09-01T15:56:15;7.70;;;4.30;;
72437;SDS011;60444;43.534;-5.674;2022-09-01T15:58:44;7.72;;;4.32;;
72437;SDS011;60444;43.534;-5.674;2022-09-01T16:01:11;9.50;;;4.25;;
72437;SDS011;60444;43.534;-5.674;2022-09-01T16:03:36;7.00;;;3.37;;
72437;SDS011;60444;43.534;-5.674;2022-09-01T16:06:03;7.47;;;3.53;;